sensor_id;sensor_type;location;lat;lon;timestamp;temperature;humidity
23609;DHT22;11982;50.810;4.442;2023-03-04T00:01:16;5.50;99.90
23609;DHT22;11982;50.810;4.442;2023-03-04T00:03:42;5.60;99.90
23609;DHT22;11982;50.810;4.442;2023-03-04T00:06:07;5.60;99.90
23609;DHT22;11982;50.810;4.442;2023-03-04T00:08:33;5.60;99.90
23609;DHT22;11982;50.810;4.442;2023-03-04T00:10:59;5.50;99.90
23609;DHT22;11982;50.810;4.442;2023-03-04T00:13:24;5.60;99.90
23609;DHT22;11982;50.810;4.442;2023-03-04T00:15:50;5.50;99.90
23609;DHT22;11982;50.810;4.442;2023-03-04T00:18:16;5.60;99.90
23609;DHT22;11982;50.810;4.442;2023-03-04T00:20:42;5.70;99.90
23609;DHT22;11982;50.810;4.442;2023-03-04T00:23:08;5.80;99.90
23609;DHT22;11982;50.810;4.442;2023-03-04T00:25:33;5.70;99.90
23609;DHT22;11982;50.810;4.442;2023-03-04T00:27:59;5.70;99.90
23609;DHT22;11982;50.810;4.442;2023-03-04T00:30:25;5.70;99.90
23609;DHT22;11982;50.810;4.442;2023-03-04T00:32:51;5.50;99.90
23609;DHT22;11982;50.810;4.442;2023-03-04T00:35:17;5.50;99.90
23609;DHT22;11982;50.810;4.442;2023-03-04T00:37:42;5.60;99.90
23609;DHT22;11982;50.810;4.442;2023-03-04T00:40:09;5.60;99.90
23609;DHT22;11982;50.810;4.442;2023-03-04T00:42:35;5.50;99.90
23609;DHT22;11982;50.810;4.442;2023-03-04T00:45:00;5.50;99.90
23609;DHT22;11982;50.810;4.442;2023-03-04T00:47:26;5.50;99.90
23609;DHT22;11982;50.810;4.442;2023-03-04T00:49:52;5.50;99.90
23609;DHT22;11982;50.810;4.442;2023-03-04T00:52:17;5.50;99.90
23609;DHT22;11982;50.810;4.442;2023-03-04T00:54:43;5.50;99.90
23609;DHT22;11982;50.810;4.442;2023-03-04T00:57:09;5.40;99.90
23609;DHT22;11982;50.810;4.442;2023-03-04T00:59:34;5.30;99.90
23609;DHT22;11982;50.810;4.442;2023-03-04T01:02:00;5.40;99.90
23609;DHT22;11982;50.810;4.442;2023-03-04T01:04:26;5.50;99.90
23609;DHT22;11982;50.810;4.442;2023-03-04T01:06:52;5.60;99.90
23609;DHT22;11982;50.810;4.442;2023-03-04T01:09:17;5.60;99.90
23609;DHT22;11982;50.810;4.442;2023-03-04T01:11:43;5.60;99.90
23609;DHT22;11982;50.810;4.442;2023-03-04T01:14:08;5.70;99.90
23609;DHT22;11982;50.810;4.442;2023-03-04T01:16:34;5.70;99.90
23609;DHT22;11982;50.810;4.442;2023-03-04T01:19:00;5.70;99.90
23609;DHT22;11982;50.810;4.442;2023-03-04T01:21:26;5.60;99.90
23609;DHT22;11982;50.810;4.442;2023-03-04T01:23:51;5.60;99.90
23609;DHT22;11982;50.810;4.442;2023-03-04T01:26:17;5.60;99.90
23609;DHT22;11982;50.810;4.442;2023-03-04T01:28:43;5.80;99.90
23609;DHT22;11982;50.810;4.442;2023-03-04T01:31:09;5.70;99.90
23609;DHT22;11982;50.810;4.442;2023-03-04T01:33:34;6.00;99.90
23609;DHT22;11982;50.810;4.442;2023-03-04T01:36:00;5.90;99.90
23609;DHT22;11982;50.810;4.442;2023-03-04T01:38:26;5.80;99.90
23609;DHT22;11982;50.810;4.442;2023-03-04T01:40:51;5.70;99.90
23609;DHT22;11982;50.810;4.442;2023-03-04T01:43:21;5.70;99.90
23609;DHT22;11982;50.810;4.442;2023-03-04T01:45:49;5.70;99.90
23609;DHT22;11982;50.810;4.442;2023-03-04T01:48:18;5.60;99.90
23609;DHT22;11982;50.810;4.442;2023-03-04T01:50:45;5.60;99.90
23609;DHT22;11982;50.810;4.442;2023-03-04T01:53:24;5.70;99.90
23609;DHT22;11982;50.810;4.442;2023-03-04T01:55:52;5.70;99.90
23609;DHT22;11982;50.810;4.442;2023-03-04T01:58:19;5.70;99.90
23609;DHT22;11982;50.810;4.442;2023-03-04T02:00:45;5.70;99.90
23609;DHT22;11982;50.810;4.442;2023-03-04T02:03:14;5.80;99.90
23609;DHT22;11982;50.810;4.442;2023-03-04T02:05:43;5.80;99.90
23609;DHT22;11982;50.810;4.442;2023-03-04T02:08:11;5.90;99.90
23609;DHT22;11982;50.810;4.442;2023-03-04T02:10:39;5.90;99.90
23609;DHT22;11982;50.810;4.442;2023-03-04T02:13:06;5.80;99.90
23609;DHT22;11982;50.810;4.442;2023-03-04T02:15:31;5.80;99.90
23609;DHT22;11982;50.810;4.442;2023-03-04T02:17:57;5.70;99.90
23609;DHT22;11982;50.810;4.442;2023-03-04T02:20:34;5.70;99.90
23609;DHT22;11982;50.810;4.442;2023-03-04T02:26:08;5.80;99.90
23609;DHT22;11982;50.810;4.442;2023-03-04T02:28:35;5.80;99.90
23609;DHT22;11982;50.810;4.442;2023-03-04T02:31:00;5.80;99.90
23609;DHT22;11982;50.810;4.442;2023-03-04T02:33:26;5.80;99.90
23609;DHT22;11982;50.810;4.442;2023-03-04T02:35:52;5.90;99.90
23609;DHT22;11982;50.810;4.442;2023-03-04T02:38:17;6.00;99.90
23609;DHT22;11982;50.810;4.442;2023-03-04T02:40:46;6.00;99.90
23609;DHT22;11982;50.810;4.442;2023-03-04T02:43:13;6.00;99.90
23609;DHT22;11982;50.810;4.442;2023-03-04T02:45:40;6.00;99.90
23609;DHT22;11982;50.810;4.442;2023-03-04T02:48:07;5.90;99.90
23609;DHT22;11982;50.810;4.442;2023-03-04T02:50:39;6.00;99.90
23609;DHT22;11982;50.810;4.442;2023-03-04T02:53:06;6.00;99.90
23609;DHT22;11982;50.810;4.442;2023-03-04T02:55:32;5.90;99.90
23609;DHT22;11982;50.810;4.442;2023-03-04T02:57:58;6.00;99.90
23609;DHT22;11982;50.810;4.442;2023-03-04T03:00:24;5.90;99.90
23609;DHT22;11982;50.810;4.442;2023-03-04T03:02:50;5.90;99.90
23609;DHT22;11982;50.810;4.442;2023-03-04T03:05:16;6.10;99.90
23609;DHT22;11982;50.810;4.442;2023-03-04T03:07:42;6.10;99.90
23609;DHT22;11982;50.810;4.442;2023-03-04T03:10:08;6.10;99.90
23609;DHT22;11982;50.810;4.442;2023-03-04T03:12:34;6.10;99.90
23609;DHT22;11982;50.810;4.442;2023-03-04T03:15:00;6.10;99.90
23609;DHT22;11982;50.810;4.442;2023-03-04T03:17:25;5.90;99.90
23609;DHT22;11982;50.810;4.442;2023-03-04T03:19:51;5.80;99.90
23609;DHT22;11982;50.810;4.442;2023-03-04T03:22:17;5.90;99.90
23609;DHT22;11982;50.810;4.442;2023-03-04T03:24:42;5.80;99.90
23609;DHT22;11982;50.810;4.442;2023-03-04T03:27:08;5.80;99.90
23609;DHT22;11982;50.810;4.442;2023-03-04T03:29:33;5.70;99.90
23609;DHT22;11982;50.810;4.442;2023-03-04T03:31:59;5.70;99.90
23609;DHT22;11982;50.810;4.442;2023-03-04T03:34:25;5.80;99.90
23609;DHT22;11982;50.810;4.442;2023-03-04T03:36:50;5.80;99.90
23609;DHT22;11982;50.810;4.442;2023-03-04T03:39:16;5.90;99.90
23609;DHT22;11982;50.810;4.442;2023-03-04T03:41:43;6.00;99.90
23609;DHT22;11982;50.810;4.442;2023-03-04T03:44:08;6.00;99.90
23609;DHT22;11982;50.810;4.442;2023-03-04T03:46:34;5.90;99.90
23609;DHT22;11982;50.810;4.442;2023-03-04T03:49:00;5.80;99.90
23609;DHT22;11982;50.810;4.442;2023-03-04T03:51:26;5.80;99.90
23609;DHT22;11982;50.810;4.442;2023-03-04T03:53:51;5.70;99.90
23609;DHT22;11982;50.810;4.442;2023-03-04T03:56:17;5.70;99.90
23609;DHT22;11982;50.810;4.442;2023-03-04T03:58:43;5.70;99.90
23609;DHT22;11982;50.810;4.442;2023-03-04T04:01:08;5.80;99.90
23609;DHT22;11982;50.810;4.442;2023-03-04T04:03:34;5.70;99.90
23609;DHT22;11982;50.810;4.442;2023-03-04T04:06:00;5.60;99.90
23609;DHT22;11982;50.810;4.442;2023-03-04T04:08:26;5.60;99.90
23609;DHT22;11982;50.810;4.442;2023-03-04T04:10:51;5.70;99.90
23609;DHT22;11982;50.810;4.442;2023-03-04T04:13:17;5.70;99.90
23609;DHT22;11982;50.810;4.442;2023-03-04T04:15:43;5.60;99.90
23609;DHT22;11982;50.810;4.442;2023-03-04T04:18:09;5.60;99.90
23609;DHT22;11982;50.810;4.442;2023-03-04T04:20:35;5.50;99.90
23609;DHT22;11982;50.810;4.442;2023-03-04T04:23:01;5.60;99.90
23609;DHT22;11982;50.810;4.442;2023-03-04T04:25:27;5.60;99.90
23609;DHT22;11982;50.810;4.442;2023-03-04T04:27:52;5.60;99.90
23609;DHT22;11982;50.810;4.442;2023-03-04T04:30:18;5.70;99.90
23609;DHT22;11982;50.810;4.442;2023-03-04T04:32:44;5.70;99.90
23609;DHT22;11982;50.810;4.442;2023-03-04T04:35:10;5.70;99.90
23609;DHT22;11982;50.810;4.442;2023-03-04T04:37:35;5.70;99.90
23609;DHT22;11982;50.810;4.442;2023-03-04T04:40:02;5.70;99.90
23609;DHT22;11982;50.810;4.442;2023-03-04T04:42:28;5.70;99.90
23609;DHT22;11982;50.810;4.442;2023-03-04T04:44:53;5.70;99.90
23609;DHT22;11982;50.810;4.442;2023-03-04T04:47:19;5.80;99.90
23609;DHT22;11982;50.810;4.442;2023-03-04T04:49:45;5.70;99.90
23609;DHT22;11982;50.810;4.442;2023-03-04T04:52:11;5.70;99.90
23609;DHT22;11982;50.810;4.442;2023-03-04T04:54:36;5.70;99.90
23609;DHT22;11982;50.810;4.442;2023-03-04T04:57:02;5.70;99.90
23609;DHT22;11982;50.810;4.442;2023-03-04T04:59:28;5.60;99.90
23609;DHT22;11982;50.810;4.442;2023-03-04T05:01:53;5.60;99.90
23609;DHT22;11982;50.810;4.442;2023-03-04T05:04:19;5.60;99.90
23609;DHT22;11982;50.810;4.442;2023-03-04T05:06:45;5.70;99.90
23609;DHT22;11982;50.810;4.442;2023-03-04T05:09:11;5.80;99.90
23609;DHT22;11982;50.810;4.442;2023-03-04T05:11:37;5.90;99.90
23609;DHT22;11982;50.810;4.442;2023-03-04T05:14:03;6.00;99.90
23609;DHT22;11982;50.810;4.442;2023-03-04T05:16:28;6.00;99.90
23609;DHT22;11982;50.810;4.442;2023-03-04T05:18:54;6.10;99.90
23609;DHT22;11982;50.810;4.442;2023-03-04T05:21:20;6.20;99.90
23609;DHT22;11982;50.810;4.442;2023-03-04T05:23:45;6.30;99.90
23609;DHT22;11982;50.810;4.442;2023-03-04T05:26:15;6.30;99.90
23609;DHT22;11982;50.810;4.442;2023-03-04T05:28:41;6.20;99.90
23609;DHT22;11982;50.810;4.442;2023-03-04T05:31:07;6.20;99.90
23609;DHT22;11982;50.810;4.442;2023-03-04T05:33:33;6.10;99.90
23609;DHT22;11982;50.810;4.442;2023-03-04T05:36:00;6.00;99.90
23609;DHT22;11982;50.810;4.442;2023-03-04T05:38:26;5.90;99.90
23609;DHT22;11982;50.810;4.442;2023-03-04T05:40:56;5.90;99.90
23609;DHT22;11982;50.810;4.442;2023-03-04T05:43:23;5.90;99.90
23609;DHT22;11982;50.810;4.442;2023-03-04T05:45:49;5.90;99.90
23609;DHT22;11982;50.810;4.442;2023-03-04T05:48:14;5.90;99.90
23609;DHT22;11982;50.810;4.442;2023-03-04T05:50:40;5.80;99.90
23609;DHT22;11982;50.810;4.442;2023-03-04T05:53:06;5.70;99.90
23609;DHT22;11982;50.810;4.442;2023-03-04T05:55:31;5.60;99.90
23609;DHT22;11982;50.810;4.442;2023-03-04T05:57:57;5.80;99.90
23609;DHT22;11982;50.810;4.442;2023-03-04T06:00:23;5.80;99.90
23609;DHT22;11982;50.810;4.442;2023-03-04T06:02:49;5.80;99.90
23609;DHT22;11982;50.810;4.442;2023-03-04T06:05:15;5.90;99.90
23609;DHT22;11982;50.810;4.442;2023-03-04T06:07:42;5.70;99.90
23609;DHT22;11982;50.810;4.442;2023-03-04T06:10:09;5.70;99.90
23609;DHT22;11982;50.810;4.442;2023-03-04T06:12:35;5.60;99.90
23609;DHT22;11982;50.810;4.442;2023-03-04T06:15:01;5.60;99.90
23609;DHT22;11982;50.810;4.442;2023-03-04T06:17:28;5.60;99.90
23609;DHT22;11982;50.810;4.442;2023-03-04T06:19:54;5.60;99.90
23609;DHT22;11982;50.810;4.442;2023-03-04T06:22:19;5.60;99.90
23609;DHT22;11982;50.810;4.442;2023-03-04T06:24:45;5.70;99.90
23609;DHT22;11982;50.810;4.442;2023-03-04T06:27:11;5.70;99.90
23609;DHT22;11982;50.810;4.442;2023-03-04T06:29:38;5.70;99.90
23609;DHT22;11982;50.810;4.442;2023-03-04T06:32:03;5.70;99.90
23609;DHT22;11982;50.810;4.442;2023-03-04T06:34:29;5.70;99.90
23609;DHT22;11982;50.810;4.442;2023-03-04T06:36:55;5.70;99.90
23609;DHT22;11982;50.810;4.442;2023-03-04T06:39:21;5.60;99.90
23609;DHT22;11982;50.810;4.442;2023-03-04T06:41:47;5.60;99.90
23609;DHT22;11982;50.810;4.442;2023-03-04T06:44:12;5.70;99.90
23609;DHT22;11982;50.810;4.442;2023-03-04T06:46:38;5.70;99.90
23609;DHT22;11982;50.810;4.442;2023-03-04T06:49:04;5.70;99.90
23609;DHT22;11982;50.810;4.442;2023-03-04T06:51:29;5.60;99.90
23609;DHT22;11982;50.810;4.442;2023-03-04T06:53:55;5.70;99.90
23609;DHT22;11982;50.810;4.442;2023-03-04T06:56:21;5.70;99.90
23609;DHT22;11982;50.810;4.442;2023-03-04T06:58:47;5.70;99.90
23609;DHT22;11982;50.810;4.442;2023-03-04T07:01:15;5.70;99.90
23609;DHT22;11982;50.810;4.442;2023-03-04T07:03:41;5.80;99.90
23609;DHT22;11982;50.810;4.442;2023-03-04T07:06:09;5.80;99.90
23609;DHT22;11982;50.810;4.442;2023-03-04T07:08:36;5.80;99.90
23609;DHT22;11982;50.810;4.442;2023-03-04T07:11:01;5.90;99.90
23609;DHT22;11982;50.810;4.442;2023-03-04T07:13:27;6.00;99.90
23609;DHT22;11982;50.810;4.442;2023-03-04T07:15:53;5.90;99.90
23609;DHT22;11982;50.810;4.442;2023-03-04T07:18:19;5.90;99.90
23609;DHT22;11982;50.810;4.442;2023-03-04T07:20:44;6.00;99.90
23609;DHT22;11982;50.810;4.442;2023-03-04T07:23:10;6.00;99.90
23609;DHT22;11982;50.810;4.442;2023-03-04T07:25:36;6.00;99.90
23609;DHT22;11982;50.810;4.442;2023-03-04T07:28:01;6.00;99.90
23609;DHT22;11982;50.810;4.442;2023-03-04T07:30:27;6.10;99.90
23609;DHT22;11982;50.810;4.442;2023-03-04T07:32:56;6.20;99.90
23609;DHT22;11982;50.810;4.442;2023-03-04T07:35:22;6.20;99.90
23609;DHT22;11982;50.810;4.442;2023-03-04T07:37:48;6.10;99.90
23609;DHT22;11982;50.810;4.442;2023-03-04T07:40:13;6.10;99.90
23609;DHT22;11982;50.810;4.442;2023-03-04T07:42:39;6.10;99.90
23609;DHT22;11982;50.810;4.442;2023-03-04T07:45:05;6.10;99.90
23609;DHT22;11982;50.810;4.442;2023-03-04T07:47:32;6.10;99.90
23609;DHT22;11982;50.810;4.442;2023-03-04T07:49:58;6.20;99.90
23609;DHT22;11982;50.810;4.442;2023-03-04T07:52:23;6.30;99.90
23609;DHT22;11982;50.810;4.442;2023-03-04T07:54:49;6.40;99.90
23609;DHT22;11982;50.810;4.442;2023-03-04T07:57:15;6.40;99.90
23609;DHT22;11982;50.810;4.442;2023-03-04T07:59:40;6.30;99.90
23609;DHT22;11982;50.810;4.442;2023-03-04T08:02:06;6.30;99.90
23609;DHT22;11982;50.810;4.442;2023-03-04T08:04:32;6.20;99.90
23609;DHT22;11982;50.810;4.442;2023-03-04T08:06:57;6.20;99.90
23609;DHT22;11982;50.810;4.442;2023-03-04T08:09:23;6.30;99.90
23609;DHT22;11982;50.810;4.442;2023-03-04T08:11:49;6.20;99.90
23609;DHT22;11982;50.810;4.442;2023-03-04T08:14:14;6.20;99.90
23609;DHT22;11982;50.810;4.442;2023-03-04T08:16:40;6.10;99.90
23609;DHT22;11982;50.810;4.442;2023-03-04T08:19:07;6.10;99.90
23609;DHT22;11982;50.810;4.442;2023-03-04T08:21:33;6.20;99.90
23609;DHT22;11982;50.810;4.442;2023-03-04T08:24:00;6.30;99.90
23609;DHT22;11982;50.810;4.442;2023-03-04T08:26:33;6.50;99.90
23609;DHT22;11982;50.810;4.442;2023-03-04T08:29:01;6.40;99.90
23609;DHT22;11982;50.810;4.442;2023-03-04T08:31:27;6.60;99.90
23609;DHT22;11982;50.810;4.442;2023-03-04T08:33:53;6.60;99.90
23609;DHT22;11982;50.810;4.442;2023-03-04T08:36:19;6.50;99.90
23609;DHT22;11982;50.810;4.442;2023-03-04T08:38:45;6.60;99.90
23609;DHT22;11982;50.810;4.442;2023-03-04T08:41:11;6.70;99.90
23609;DHT22;11982;50.810;4.442;2023-03-04T08:43:38;6.80;99.90
23609;DHT22;11982;50.810;4.442;2023-03-04T08:46:04;6.70;99.90
23609;DHT22;11982;50.810;4.442;2023-03-04T08:48:30;6.70;99.90
23609;DHT22;11982;50.810;4.442;2023-03-04T08:50:56;6.80;99.90
23609;DHT22;11982;50.810;4.442;2023-03-04T08:53:22;6.80;99.90
23609;DHT22;11982;50.810;4.442;2023-03-04T08:55:50;6.90;99.90
23609;DHT22;11982;50.810;4.442;2023-03-04T08:58:16;6.90;99.90
23609;DHT22;11982;50.810;4.442;2023-03-04T09:00:45;6.80;99.90
23609;DHT22;11982;50.810;4.442;2023-03-04T09:03:13;6.60;99.90
23609;DHT22;11982;50.810;4.442;2023-03-04T09:05:39;6.60;99.90
23609;DHT22;11982;50.810;4.442;2023-03-04T09:08:05;6.40;99.90
23609;DHT22;11982;50.810;4.442;2023-03-04T09:10:31;6.40;99.90
23609;DHT22;11982;50.810;4.442;2023-03-04T09:12:57;6.40;99.90
23609;DHT22;11982;50.810;4.442;2023-03-04T09:15:23;6.40;99.90
23609;DHT22;11982;50.810;4.442;2023-03-04T09:17:49;6.40;99.90
23609;DHT22;11982;50.810;4.442;2023-03-04T09:20:14;6.60;99.90
23609;DHT22;11982;50.810;4.442;2023-03-04T09:22:41;6.70;99.90
23609;DHT22;11982;50.810;4.442;2023-03-04T09:25:08;6.70;99.90
23609;DHT22;11982;50.810;4.442;2023-03-04T09:27:34;6.70;99.90
23609;DHT22;11982;50.810;4.442;2023-03-04T09:29:59;6.70;99.90
23609;DHT22;11982;50.810;4.442;2023-03-04T09:32:27;6.80;99.90
23609;DHT22;11982;50.810;4.442;2023-03-04T09:34:53;6.90;99.90
23609;DHT22;11982;50.810;4.442;2023-03-04T09:37:18;6.90;99.90
23609;DHT22;11982;50.810;4.442;2023-03-04T09:39:44;7.00;99.90
23609;DHT22;11982;50.810;4.442;2023-03-04T09:42:15;7.10;99.90
23609;DHT22;11982;50.810;4.442;2023-03-04T09:44:45;7.00;99.90
23609;DHT22;11982;50.810;4.442;2023-03-04T09:47:15;7.10;99.90
23609;DHT22;11982;50.810;4.442;2023-03-04T09:49:44;7.20;99.90
23609;DHT22;11982;50.810;4.442;2023-03-04T09:57:54;7.20;99.90
23609;DHT22;11982;50.810;4.442;2023-03-04T10:00:42;7.20;99.90
23609;DHT22;11982;50.810;4.442;2023-03-04T10:05:52;7.50;99.90
23609;DHT22;11982;50.810;4.442;2023-03-04T10:10:50;7.70;99.90
23609;DHT22;11982;50.810;4.442;2023-03-04T10:13:25;7.80;99.90
23609;DHT22;11982;50.810;4.442;2023-03-04T10:15:58;7.70;99.90
23609;DHT22;11982;50.810;4.442;2023-03-04T10:18:33;7.70;99.90
23609;DHT22;11982;50.810;4.442;2023-03-04T10:21:07;7.70;99.90
23609;DHT22;11982;50.810;4.442;2023-03-04T10:23:37;7.80;99.90
23609;DHT22;11982;50.810;4.442;2023-03-04T10:26:13;8.10;99.90
23609;DHT22;11982;50.810;4.442;2023-03-04T10:28:39;8.30;99.90
23609;DHT22;11982;50.810;4.442;2023-03-04T10:33:37;8.20;99.90
23609;DHT22;11982;50.810;4.442;2023-03-04T10:39:06;7.60;99.90
23609;DHT22;11982;50.810;4.442;2023-03-04T10:41:33;7.70;99.90
23609;DHT22;11982;50.810;4.442;2023-03-04T10:46:28;7.90;99.90
23609;DHT22;11982;50.810;4.442;2023-03-04T10:48:54;7.90;99.90
23609;DHT22;11982;50.810;4.442;2023-03-04T10:51:29;7.80;99.90
23609;DHT22;11982;50.810;4.442;2023-03-04T10:53:58;7.60;99.90
23609;DHT22;11982;50.810;4.442;2023-03-04T10:56:58;7.70;99.90
23609;DHT22;11982;50.810;4.442;2023-03-04T11:02:29;8.10;99.90
23609;DHT22;11982;50.810;4.442;2023-03-04T11:05:06;8.10;99.90
23609;DHT22;11982;50.810;4.442;2023-03-04T11:07:38;8.10;99.90
23609;DHT22;11982;50.810;4.442;2023-03-04T11:10:12;8.10;99.90
23609;DHT22;11982;50.810;4.442;2023-03-04T11:12:38;8.30;99.90
23609;DHT22;11982;50.810;4.442;2023-03-04T11:15:22;8.50;99.90
23609;DHT22;11982;50.810;4.442;2023-03-04T11:18:09;8.30;99.90
23609;DHT22;11982;50.810;4.442;2023-03-04T11:20:47;8.40;99.90
23609;DHT22;11982;50.810;4.442;2023-03-04T11:25:43;7.60;99.90
23609;DHT22;11982;50.810;4.442;2023-03-04T11:28:23;7.50;99.90
23609;DHT22;11982;50.810;4.442;2023-03-04T11:30:57;7.30;99.90
23609;DHT22;11982;50.810;4.442;2023-03-04T11:33:35;7.30;99.90
23609;DHT22;11982;50.810;4.442;2023-03-04T11:38:47;7.50;99.90
23609;DHT22;11982;50.810;4.442;2023-03-04T11:41:32;7.40;99.90
23609;DHT22;11982;50.810;4.442;2023-03-04T11:44:00;7.40;99.90
23609;DHT22;11982;50.810;4.442;2023-03-04T11:46:51;7.60;99.90
23609;DHT22;11982;50.810;4.442;2023-03-04T11:53:13;8.30;99.90
23609;DHT22;11982;50.810;4.442;2023-03-04T11:57:56;8.60;99.90
23609;DHT22;11982;50.810;4.442;2023-03-04T12:00:31;8.80;99.90
23609;DHT22;11982;50.810;4.442;2023-03-04T12:05:52;8.50;99.90
23609;DHT22;11982;50.810;4.442;2023-03-04T12:08:26;8.50;99.90
23609;DHT22;11982;50.810;4.442;2023-03-04T12:16:39;8.90;99.90
23609;DHT22;11982;50.810;4.442;2023-03-04T12:30:51;8.10;99.90
23609;DHT22;11982;50.810;4.442;2023-03-04T12:36:18;8.40;99.90
23609;DHT22;11982;50.810;4.442;2023-03-04T12:41:41;8.30;99.90
23609;DHT22;11982;50.810;4.442;2023-03-04T12:44:17;8.50;99.90
23609;DHT22;11982;50.810;4.442;2023-03-04T12:49:36;8.80;99.90
23609;DHT22;11982;50.810;4.442;2023-03-04T12:55:13;8.80;99.90
23609;DHT22;11982;50.810;4.442;2023-03-04T12:57:39;8.90;99.90
23609;DHT22;11982;50.810;4.442;2023-03-04T13:03:08;9.20;99.90
23609;DHT22;11982;50.810;4.442;2023-03-04T13:05:54;9.60;99.90
23609;DHT22;11982;50.810;4.442;2023-03-04T13:16:44;8.80;99.90
23609;DHT22;11982;50.810;4.442;2023-03-04T13:21:53;8.60;99.90
23609;DHT22;11982;50.810;4.442;2023-03-04T13:24:44;8.50;99.90
23609;DHT22;11982;50.810;4.442;2023-03-04T13:27:45;8.50;99.90
23609;DHT22;11982;50.810;4.442;2023-03-04T13:43:43;8.50;99.90
23609;DHT22;11982;50.810;4.442;2023-03-04T13:51:32;9.10;99.90
23609;DHT22;11982;50.810;4.442;2023-03-04T13:56:43;9.40;99.90
23609;DHT22;11982;50.810;4.442;2023-03-04T14:02:10;9.00;99.90
23609;DHT22;11982;50.810;4.442;2023-03-04T14:04:42;8.90;99.90
23609;DHT22;11982;50.810;4.442;2023-03-04T14:10:05;8.60;99.90
23609;DHT22;11982;50.810;4.442;2023-03-04T14:12:43;8.50;99.90
23609;DHT22;11982;50.810;4.442;2023-03-04T14:15:23;8.40;99.90
23609;DHT22;11982;50.810;4.442;2023-03-04T14:17:57;8.40;99.90
23609;DHT22;11982;50.810;4.442;2023-03-04T14:22:57;8.50;99.90
23609;DHT22;11982;50.810;4.442;2023-03-04T14:25:41;8.60;99.90
23609;DHT22;11982;50.810;4.442;2023-03-04T14:28:13;8.40;99.90
23609;DHT22;11982;50.810;4.442;2023-03-04T14:30:40;8.30;99.90
23609;DHT22;11982;50.810;4.442;2023-03-04T14:33:08;8.20;99.90
23609;DHT22;11982;50.810;4.442;2023-03-04T14:35:35;8.10;99.90
23609;DHT22;11982;50.810;4.442;2023-03-04T14:38:12;8.20;99.90
23609;DHT22;11982;50.810;4.442;2023-03-04T14:40:43;8.30;99.90
23609;DHT22;11982;50.810;4.442;2023-03-04T14:43:19;8.10;99.90
23609;DHT22;11982;50.810;4.442;2023-03-04T14:45:49;8.10;99.90
23609;DHT22;11982;50.810;4.442;2023-03-04T14:48:29;8.10;99.90
23609;DHT22;11982;50.810;4.442;2023-03-04T14:50:56;8.20;99.90
23609;DHT22;11982;50.810;4.442;2023-03-04T14:53:25;8.20;99.90
23609;DHT22;11982;50.810;4.442;2023-03-04T14:58:30;8.10;99.90
23609;DHT22;11982;50.810;4.442;2023-03-04T15:01:18;8.20;99.90
23609;DHT22;11982;50.810;4.442;2023-03-04T15:04:11;8.30;99.90
23609;DHT22;11982;50.810;4.442;2023-03-04T15:06:51;8.40;99.90
23609;DHT22;11982;50.810;4.442;2023-03-04T15:09:20;8.40;99.90
23609;DHT22;11982;50.810;4.442;2023-03-04T15:12:00;8.30;99.90
23609;DHT22;11982;50.810;4.442;2023-03-04T15:14:50;8.10;99.90
23609;DHT22;11982;50.810;4.442;2023-03-04T15:17:35;8.20;99.90
23609;DHT22;11982;50.810;4.442;2023-03-04T15:22:31;7.80;99.90
23609;DHT22;11982;50.810;4.442;2023-03-04T15:24:57;7.60;99.90
23609;DHT22;11982;50.810;4.442;2023-03-04T15:27:24;7.40;99.90
23609;DHT22;11982;50.810;4.442;2023-03-04T15:29:51;7.30;99.90
23609;DHT22;11982;50.810;4.442;2023-03-04T15:32:22;7.30;99.90
23609;DHT22;11982;50.810;4.442;2023-03-04T15:34:47;7.40;99.90
23609;DHT22;11982;50.810;4.442;2023-03-04T15:37:26;7.50;99.90
23609;DHT22;11982;50.810;4.442;2023-03-04T15:39:52;7.60;99.90
23609;DHT22;11982;50.810;4.442;2023-03-04T15:42:18;7.70;99.90
23609;DHT22;11982;50.810;4.442;2023-03-04T15:44:44;7.80;99.90
23609;DHT22;11982;50.810;4.442;2023-03-04T15:47:10;7.80;99.90
23609;DHT22;11982;50.810;4.442;2023-03-04T15:49:42;7.90;99.90
23609;DHT22;11982;50.810;4.442;2023-03-04T15:52:19;7.90;99.90
23609;DHT22;11982;50.810;4.442;2023-03-04T15:54:47;8.00;99.90
23609;DHT22;11982;50.810;4.442;2023-03-04T15:57:20;8.20;99.90
23609;DHT22;11982;50.810;4.442;2023-03-04T15:59:46;8.30;99.90
23609;DHT22;11982;50.810;4.442;2023-03-04T16:02:20;8.30;99.90
23609;DHT22;11982;50.810;4.442;2023-03-04T16:04:46;8.20;99.90
23609;DHT22;11982;50.810;4.442;2023-03-04T16:07:19;8.20;99.90
23609;DHT22;11982;50.810;4.442;2023-03-04T16:09:53;8.30;99.90
23609;DHT22;11982;50.810;4.442;2023-03-04T16:12:19;8.40;99.90
23609;DHT22;11982;50.810;4.442;2023-03-04T16:14:44;8.60;99.90
23609;DHT22;11982;50.810;4.442;2023-03-04T16:17:11;8.70;99.90
23609;DHT22;11982;50.810;4.442;2023-03-04T16:19:40;8.60;99.90
23609;DHT22;11982;50.810;4.442;2023-03-04T16:22:08;8.50;99.90
23609;DHT22;11982;50.810;4.442;2023-03-04T16:24:33;8.50;99.90
23609;DHT22;11982;50.810;4.442;2023-03-04T16:26:59;8.30;99.90
23609;DHT22;11982;50.810;4.442;2023-03-04T16:29:25;8.20;99.90
23609;DHT22;11982;50.810;4.442;2023-03-04T16:31:53;8.20;99.90
23609;DHT22;11982;50.810;4.442;2023-03-04T16:34:18;8.20;99.90
23609;DHT22;11982;50.810;4.442;2023-03-04T16:36:44;8.20;99.90
23609;DHT22;11982;50.810;4.442;2023-03-04T16:39:20;8.00;99.90
23609;DHT22;11982;50.810;4.442;2023-03-04T16:41:46;7.90;99.90
23609;DHT22;11982;50.810;4.442;2023-03-04T16:44:13;7.90;99.90
23609;DHT22;11982;50.810;4.442;2023-03-04T16:46:40;7.90;99.90
23609;DHT22;11982;50.810;4.442;2023-03-04T16:49:06;7.80;99.90
23609;DHT22;11982;50.810;4.442;2023-03-04T16:51:39;7.80;99.90
23609;DHT22;11982;50.810;4.442;2023-03-04T16:54:06;7.80;99.90
23609;DHT22;11982;50.810;4.442;2023-03-04T16:56:35;7.80;99.90
23609;DHT22;11982;50.810;4.442;2023-03-04T16:59:01;7.90;99.90
23609;DHT22;11982;50.810;4.442;2023-03-04T17:01:29;7.90;99.90
23609;DHT22;11982;50.810;4.442;2023-03-04T17:03:55;7.90;99.90
23609;DHT22;11982;50.810;4.442;2023-03-04T17:06:21;7.90;99.90
23609;DHT22;11982;50.810;4.442;2023-03-04T17:08:47;7.80;99.90
23609;DHT22;11982;50.810;4.442;2023-03-04T17:11:16;7.90;99.90
23609;DHT22;11982;50.810;4.442;2023-03-04T17:13:43;7.80;99.90
23609;DHT22;11982;50.810;4.442;2023-03-04T17:16:10;7.80;99.90
23609;DHT22;11982;50.810;4.442;2023-03-04T17:18:36;7.80;99.90
23609;DHT22;11982;50.810;4.442;2023-03-04T17:21:05;7.80;99.90
23609;DHT22;11982;50.810;4.442;2023-03-04T17:23:32;7.70;99.90
23609;DHT22;11982;50.810;4.442;2023-03-04T17:25:59;7.60;99.90
23609;DHT22;11982;50.810;4.442;2023-03-04T17:28:25;7.60;99.90
23609;DHT22;11982;50.810;4.442;2023-03-04T17:30:51;7.60;99.90
23609;DHT22;11982;50.810;4.442;2023-03-04T17:33:17;7.70;99.90
23609;DHT22;11982;50.810;4.442;2023-03-04T17:35:43;7.70;99.90
23609;DHT22;11982;50.810;4.442;2023-03-04T17:38:11;7.70;99.90
23609;DHT22;11982;50.810;4.442;2023-03-04T17:40:37;7.70;99.90
23609;DHT22;11982;50.810;4.442;2023-03-04T17:43:03;7.60;99.90
23609;DHT22;11982;50.810;4.442;2023-03-04T17:45:41;7.60;99.90
23609;DHT22;11982;50.810;4.442;2023-03-04T17:48:09;7.60;99.90